Time;durP1;ratioP1;P1;durP2;ratioP2;P2;SDS_P1;SDS_P2;PMS_P1;PMS_P2;Temp;Humidity;BMP_temperature;BMP_pressure;BME280_temperature;BME280_humidity;BME280_pressure;Samples;Min_cycle;Max_cycle;Signal;HPM_P1;HPM_P2
2023/03/23 00:05:08;;;;;;;14.90;12.93;;;16.40;79.60;;;;;;10820295;33;20020;-73
2023/03/23 00:11:22;;;;;;;15.60;12.77;;;16.30;79.40;;;;;;10823736;32;20051;-73
2023/03/23 00:17:24;;;;;;;15.27;12.37;;;16.30;79.70;;;;;;10830874;33;20397;-74
2023/03/23 00:23:28;;;;;;;16.60;13.23;;;16.30;79.70;;;;;;10829387;33;20385;-73
2023/03/23 00:29:31;;;;;;;17.87;16.00;;;16.20;79.50;;;;;;10827367;33;20409;-73
2023/03/23 00:35:37;;;;;;;21.33;18.77;;;16.00;79.10;;;;;;10830911;33;20008;-73
2023/03/23 00:41:39;;;;;;;15.32;13.70;;;16.00;78.90;;;;;;10826684;33;20016;-73
2023/03/23 00:47:46;;;;;;;14.00;12.18;;;15.90;78.90;;;;;;10829973;33;20015;-74
2023/03/23 00:53:49;;;;;;;16.33;11.55;;;15.70;78.90;;;;;;10829352;33;20051;-74
2023/03/23 00:59:53;;;;;;;22.75;17.33;;;15.70;79.00;;;;;;10830202;33;20042;-74
2023/03/23 01:05:56;;;;;;;16.30;12.40;;;15.70;78.90;;;;;;10830114;33;20024;-74
2023/03/23 01:11:59;;;;;;;16.73;14.38;;;15.60;78.80;;;;;;10829175;33;20020;-73
2023/03/23 01:18:02;;;;;;;15.38;12.27;;;15.50;78.90;;;;;;10829093;33;20056;-73
2023/03/23 01:24:07;;;;;;;14.38;12.55;;;15.50;78.60;;;;;;10828657;32;20016;-74
2023/03/23 01:30:12;;;;;;;13.85;10.02;;;15.30;78.70;;;;;;10829369;33;20424;-74
2023/03/23 01:36:18;;;;;;;12.25;10.82;;;15.30;78.70;;;;;;10827683;33;20034;-74
2023/03/23 01:42:25;;;;;;;13.73;10.20;;;15.30;78.60;;;;;;10829426;33;20309;-74
2023/03/23 01:48:32;;;;;;;14.10;12.57;;;15.20;78.60;;;;;;10828223;32;20387;-74
2023/03/23 01:54:38;;;;;;;15.45;12.37;;;15.20;78.60;;;;;;10824047;33;20058;-74
2023/03/23 02:00:42;;;;;;;16.15;14.10;;;15.20;78.30;;;;;;10826119;33;20027;-74
2023/03/23 02:06:57;;;;;;;11.45;9.73;;;15.30;78.20;;;;;;10828049;33;20024;-74
2023/03/23 02:13:03;;;;;;;18.60;16.58;;;15.20;78.20;;;;;;10826640;33;20043;-74
2023/03/23 02:19:37;;;;;;;18.10;16.10;;;15.00;78.30;;;;;;10827338;33;20047;-74
2023/03/23 02:25:58;;;;;;;13.25;10.10;;;15.10;78.60;;;;;;10825116;33;20040;-73
2023/03/23 02:32:24;;;;;;;11.75;9.75;;;15.00;78.70;;;;;;10828023;33;20306;-74
2023/03/23 02:39:14;;;;;;;13.45;10.15;;;14.80;79.00;;;;;;10827351;32;20042;-74
2023/03/23 02:45:20;;;;;;;12.35;11.05;;;14.70;79.00;;;;;;10713594;32;20056;-74
2023/03/23 02:51:23;;;;;;;11.68;10.23;;;14.70;79.20;;;;;;10697383;33;20202;-74
2023/03/23 02:57:27;;;;;;;12.73;9.45;;;14.70;79.20;;;;;;10700535;32;20155;-74
2023/03/23 03:03:30;;;;;;;15.98;14.27;;;14.70;79.00;;;;;;10712080;32;20033;-74
2023/03/23 03:10:13;;;;;;;15.85;11.10;;;14.70;79.00;;;;;;10697111;32;20033;-74
2023/03/23 03:16:38;;;;;;;14.80;11.57;;;14.70;79.20;;;;;;10720794;32;20050;-74
2023/03/23 03:22:43;;;;;;;11.52;9.13;;;14.70;79.10;;;;;;10822299;33;20024;-74
2023/03/23 03:28:48;;;;;;;11.52;8.32;;;14.50;79.20;;;;;;10825879;33;20028;-73
2023/03/23 03:34:52;;;;;;;21.08;18.30;;;14.50;79.40;;;;;;10824333;33;20033;-74
2023/03/23 03:40:56;;;;;;;13.73;10.55;;;14.50;79.20;;;;;;10823008;33;20040;-74
2023/03/23 03:46:59;;;;;;;13.85;12.35;;;14.60;79.00;;;;;;10825877;32;20428;-74
2023/03/23 03:53:01;;;;;;;19.45;13.98;;;14.40;79.00;;;;;;10823352;33;20090;-74
2023/03/23 03:59:03;;;;;;;12.13;9.82;;;14.30;79.00;;;;;;10824640;33;20024;-74
2023/03/23 04:05:08;;;;;;;11.52;9.05;;;14.30;79.00;;;;;;10825088;33;20298;-74
2023/03/23 04:11:12;;;;;;;14.00;12.25;;;14.20;78.90;;;;;;10820429;33;20059;-74
2023/03/23 04:17:14;;;;;;;21.42;17.70;;;14.20;78.80;;;;;;10824831;33;20386;-74
2023/03/23 04:23:22;;;;;;;16.25;13.43;;;14.20;78.70;;;;;;10824641;33;20020;-74
2023/03/23 04:29:24;;;;;;;17.25;14.40;;;14.20;78.40;;;;;;10824630;33;20020;-74
2023/03/23 04:35:29;;;;;;;11.52;9.93;;;14.10;78.60;;;;;;10824412;33;20428;-74
2023/03/23 04:41:33;;;;;;;14.32;10.13;;;14.10;78.50;;;;;;10823704;33;20020;-74
2023/03/23 04:47:40;;;;;;;10.63;8.95;;;14.00;78.50;;;;;;10824804;33;20024;-74
2023/03/23 04:53:45;;;;;;;14.38;12.77;;;14.00;78.40;;;;;;10821441;33;20043;-74
2023/03/23 04:59:47;;;;;;;13.40;11.52;;;14.00;78.40;;;;;;10824082;32;20028;-74
2023/03/23 05:05:52;;;;;;;19.00;16.98;;;14.20;78.10;;;;;;10830156;33;20036;-74
2023/03/23 05:11:54;;;;;;;19.95;17.67;;;14.30;77.80;;;;;;10828523;33;20031;-74
2023/03/23 05:17:56;;;;;;;16.87;14.35;;;14.40;77.50;;;;;;10828470;33;20043;-74
2023/03/23 05:24:00;;;;;;;15.15;13.60;;;14.30;77.30;;;;;;10827362;33;20027;-74
2023/03/23 05:30:04;;;;;;;13.82;11.00;;;14.30;77.30;;;;;;10826919;33;20047;-74
2023/03/23 05:36:10;;;;;;;18.35;14.05;;;14.20;77.50;;;;;;10828633;33;20055;-74
2023/03/23 05:42:45;;;;;;;11.27;8.75;;;14.00;78.10;;;;;;10828602;33;20342;-75
2023/03/23 05:48:47;;;;;;;12.35;10.93;;;14.20;78.00;;;;;;10828299;32;20047;-74
2023/03/23 05:54:51;;;;;;;11.12;8.82;;;14.20;77.80;;;;;;10827998;33;20397;-72
2023/03/23 06:00:53;;;;;;;13.75;10.50;;;14.40;77.60;;;;;;10824525;33;20352;-72
2023/03/23 06:06:55;;;;;;;19.52;16.58;;;14.50;77.60;;;;;;10825934;33;20059;-73
2023/03/23 06:12:58;;;;;;;14.52;12.37;;;14.60;77.60;;;;;;10826947;32;20027;-72
2023/03/23 06:19:01;;;;;;;12.13;10.35;;;14.70;77.60;;;;;;10825900;33;20028;-73
2023/03/23 06:25:06;;;;;;;17.75;14.27;;;14.70;77.90;;;;;;10827257;33;20028;-72
2023/03/23 06:31:11;;;;;;;18.08;14.25;;;14.90;77.80;;;;;;10827629;33;20420;-73
2023/03/23 06:37:13;;;;;;;20.73;18.70;;;15.20;78.80;;;;;;10826171;33;20024;-73
2023/03/23 06:43:17;;;;;;;21.50;19.12;;;15.30;78.50;;;;;;10823397;33;20024;-73
2023/03/23 06:49:20;;;;;;;20.52;15.95;;;15.50;78.50;;;;;;10824552;32;20059;-73
2023/03/23 06:55:39;;;;;;;21.48;19.30;;;15.60;78.50;;;;;;10825904;33;20294;-74
2023/03/23 07:01:41;;;;;;;18.02;16.10;;;15.70;78.80;;;;;;10809609;33;20050;-74
2023/03/23 07:07:43;;;;;;;24.17;20.85;;;15.90;79.50;;;;;;10809667;33;20051;-74
2023/03/23 07:13:49;;;;;;;24.10;20.52;;;16.10;80.40;;;;;;10787734;33;20055;-74
2023/03/23 07:19:52;;;;;;;29.52;26.25;;;16.30;80.70;;;;;;10803154;32;20032;-74
2023/03/23 07:26:14;;;;;;;19.75;17.40;;;16.20;81.90;;;;;;10824659;33;20027;-75
2023/03/23 07:32:17;;;;;;;24.05;21.45;;;16.20;82.40;;;;;;10825023;33;20101;-75
2023/03/23 07:38:21;;;;;;;32.42;26.83;;;16.30;82.40;;;;;;10825569;33;20322;-75
2023/03/23 07:44:23;;;;;;;23.25;20.58;;;16.20;82.60;;;;;;10823202;33;20406;-75
2023/03/23 07:50:27;;;;;;;20.17;17.65;;;16.20;83.30;;;;;;10841101;27;20054;-74
2023/03/23 07:56:29;;;;;;;21.92;18.92;;;16.40;83.20;;;;;;10849924;32;20050;-75
2023/03/23 08:02:33;;;;;;;20.40;17.48;;;16.60;83.10;;;;;;10860978;32;20047;-74
2023/03/23 08:08:37;;;;;;;20.98;17.92;;;16.70;83.60;;;;;;10860865;32;20038;-75
2023/03/23 08:14:41;;;;;;;25.10;20.85;;;16.80;83.40;;;;;;10861269;32;20054;-75
2023/03/23 08:20:47;;;;;;;32.00;28.25;;;16.80;84.00;;;;;;10860707;32;20023;-75
2023/03/23 08:26:49;;;;;;;27.27;23.48;;;16.80;84.20;;;;;;10848482;32;20032;-74
2023/03/23 08:32:52;;;;;;;21.65;18.30;;;16.50;84.50;;;;;;10848888;32;20024;-74
2023/03/23 08:38:55;;;;;;;25.50;21.17;;;16.50;84.70;;;;;;10853004;32;20050;-75
2023/03/23 08:44:58;;;;;;;29.23;26.17;;;16.60;85.10;;;;;;10866572;32;20015;-74
2023/03/23 08:51:00;;;;;;;26.45;21.77;;;16.70;85.20;;;;;;10866812;32;20028;-74
2023/03/23 08:57:04;;;;;;;28.20;25.25;;;16.70;85.20;;;;;;10854317;32;20038;-75
2023/03/23 09:03:06;;;;;;;31.20;25.70;;;16.80;84.80;;;;;;10866028;32;20015;-75
2023/03/23 09:09:09;;;;;;;27.00;22.92;;;16.90;85.00;;;;;;10866963;32;20024;-75
2023/03/23 09:15:15;;;;;;;22.67;18.48;;;17.00;84.70;;;;;;10865960;32;20020;-75
2023/03/23 09:21:17;;;;;;;19.10;16.27;;;17.10;84.70;;;;;;10867247;32;20377;-75
2023/03/23 09:27:19;;;;;;;20.33;16.58;;;17.10;84.40;;;;;;10866496;32;20038;-75
2023/03/23 09:33:21;;;;;;;19.27;15.95;;;17.10;84.40;;;;;;10861786;32;20063;-75
2023/03/23 09:39:23;;;;;;;21.10;17.30;;;17.10;84.30;;;;;;10864715;32;20050;-75
2023/03/23 09:45:48;;;;;;;18.95;16.02;;;17.20;84.50;;;;;;10851077;32;20397;-75
2023/03/23 09:51:58;;;;;;;25.85;22.58;;;17.40;83.80;;;;;;10676531;33;20037;-75
2023/03/23 09:58:25;;;;;;;24.25;16.77;;;17.60;83.10;;;;;;10678936;33;20336;-75
2023/03/23 10:04:31;;;;;;;16.98;14.02;;;17.60;82.90;;;;;;10679116;33;20335;-74
2023/03/23 10:10:59;;;;;;;33.33;28.40;;;17.50;83.30;;;;;;10678268;33;20041;-75
2023/03/23 10:17:13;;;;;;;16.23;12.88;;;17.50;82.10;;;;;;10676863;33;20048;-75
2023/03/23 10:23:21;;;;;;;13.40;11.25;;;17.60;82.40;;;;;;10674006;33;20017;-75
2023/03/23 10:29:31;;;;;;;18.93;12.87;;;17.80;82.20;;;;;;10842896;32;20054;-75
2023/03/23 10:35:43;;;;;;;19.55;13.93;;;18.00;82.20;;;;;;10851282;32;20019;-74
2023/03/23 10:41:45;;;;;;;26.92;24.10;;;18.00;81.40;;;;;;10850662;32;20028;-75
2023/03/23 10:47:59;;;;;;;34.65;24.90;;;18.20;82.10;;;;;;10861104;32;20055;-75
2023/03/23 10:54:04;;;;;;;20.30;16.58;;;18.20;81.20;;;;;;10861994;32;20023;-75
2023/03/23 11:00:17;;;;;;;19.55;14.57;;;18.10;81.80;;;;;;10863726;32;20016;-75
2023/03/23 11:06:33;;;;;;;25.35;21.27;;;18.40;82.10;;;;;;10863061;32;20024;-74
2023/03/23 11:12:35;;;;;;;19.52;17.37;;;18.70;81.40;;;;;;10850159;32;20047;-75
2023/03/23 11:18:40;;;;;;;29.80;26.60;;;19.00;81.30;;;;;;10862053;32;20345;-74
2023/03/23 11:24:45;;;;;;;26.10;21.87;;;19.40;80.60;;;;;;10860924;32;20028;-74
2023/03/23 11:30:47;;;;;;;21.30;18.83;;;19.70;80.10;;;;;;10863366;32;20027;-74
2023/03/23 11:37:17;;;;;;;21.23;16.15;;;19.90;79.00;;;;;;10862822;32;20419;-74
2023/03/23 11:43:24;;;;;;;27.35;21.25;;;19.90;78.30;;;;;;10829910;32;20419;-74
2023/03/23 11:50:00;;;;;;;24.80;20.02;;;20.30;77.70;;;;;;10835491;32;20056;-73
2023/03/23 11:56:18;;;;;;;35.85;31.77;;;20.70;76.00;;;;;;10856135;32;20063;-73
2023/03/23 12:02:36;;;;;;;18.40;14.30;;;20.80;76.30;;;;;;10861129;32;20028;-73
2023/03/23 12:08:50;;;;;;;29.50;23.20;;;20.50;74.90;;;;;;10836714;32;20032;-73
2023/03/23 12:15:45;;;;;;;19.25;17.17;;;20.30;74.80;;;;;;10844429;32;20058;-72
2023/03/23 12:21:51;;;;;;;17.25;13.23;;;20.10;76.40;;;;;;10681186;33;20140;-73
2023/03/23 12:28:30;;;;;;;28.38;21.10;;;20.20;76.30;;;;;;10668319;33;20068;-74
2023/03/23 12:34:45;;;;;;;14.27;8.73;;;20.60;75.20;;;;;;10680187;33;20083;-76
2023/03/23 12:40:56;;;;;;;14.70;10.60;;;20.60;71.90;;;;;;10680058;33;20045;-74
2023/03/23 12:47:05;;;;;;;20.70;18.12;;;20.90;72.90;;;;;;10677340;33;20021;-74
2023/03/23 12:53:46;;;;;;;13.95;10.35;;;21.20;72.60;;;;;;10854849;32;20028;-74
2023/03/23 13:00:02;;;;;;;10.38;7.37;;;21.20;73.20;;;;;;10652836;33;20056;-73
2023/03/23 13:06:29;;;;;;;20.37;18.12;;;21.40;71.50;;;;;;10642261;33;20026;-73
2023/03/23 13:12:34;;;;;;;15.00;9.55;;;21.30;71.40;;;;;;10632006;33;20072;-74
2023/03/23 13:18:47;;;;;;;13.00;9.55;;;21.10;71.60;;;;;;10662566;33;20111;-74
2023/03/23 13:25:02;;;;;;;21.00;18.12;;;21.20;70.90;;;;;;10679820;33;20025;-73
2023/03/23 13:31:19;;;;;;;18.10;14.02;;;21.70;70.20;;;;;;10680182;33;20163;-73
2023/03/23 13:37:25;;;;;;;16.65;14.18;;;21.80;69.60;;;;;;10810376;33;20389;-73
2023/03/23 13:43:34;;;;;;;16.45;14.52;;;21.90;69.20;;;;;;10829110;33;20024;-74
2023/03/23 13:49:53;;;;;;;21.73;19.20;;;21.90;69.60;;;;;;10827244;33;20027;-73
2023/03/23 13:56:20;;;;;;;19.83;15.68;;;22.10;68.00;;;;;;10814206;33;20047;-73
2023/03/23 14:02:41;;;;;;;21.62;13.35;;;22.10;68.10;;;;;;10828657;33;20295;-73
2023/03/23 14:08:48;;;;;;;14.07;9.88;;;22.10;68.20;;;;;;10823704;33;20020;-73
2023/03/23 14:15:01;;;;;;;12.30;9.00;;;22.30;67.60;;;;;;10828217;33;20377;-73
2023/03/23 14:21:05;;;;;;;17.52;10.48;;;22.70;67.50;;;;;;10827783;33;20409;-73
2023/03/23 14:27:12;;;;;;;14.15;12.30;;;22.80;66.70;;;;;;10827025;33;20394;-74
2023/03/23 14:33:27;;;;;;;12.88;9.75;;;22.60;67.50;;;;;;10823646;32;20044;-74
2023/03/23 14:39:32;;;;;;;10.57;7.62;;;22.30;67.40;;;;;;10826916;33;20020;-73
2023/03/23 14:45:35;;;;;;;15.63;9.02;;;22.30;67.60;;;;;;10846550;32;20066;-73
2023/03/23 14:51:46;;;;;;;21.87;19.17;;;22.30;67.30;;;;;;10862723;32;20028;-73
2023/03/23 14:57:49;;;;;;;14.27;10.85;;;22.50;67.80;;;;;;10864445;32;20020;-73
2023/03/23 15:04:06;;;;;;;14.93;10.75;;;22.40;67.20;;;;;;10862885;32;20008;-73
2023/03/23 15:11:03;;;;;;;13.30;8.30;;;22.30;67.10;;;;;;10823700;32;20040;-74
2023/03/23 15:17:22;;;;;;;8.85;6.35;;;21.90;68.80;;;;;;10833779;32;20080;-73
2023/03/23 15:23:43;;;;;;;19.90;13.40;;;21.70;70.30;;;;;;10936078;32;20313;-73
2023/03/23 15:29:57;;;;;;;12.07;10.02;;;21.70;70.20;;;;;;10939406;32;20027;-73
2023/03/23 15:35:59;;;;;;;13.77;11.40;;;22.00;71.30;;;;;;10938595;32;20046;-74
2023/03/23 15:42:05;;;;;;;14.07;11.55;;;22.40;71.90;;;;;;10938203;32;20046;-74
2023/03/23 15:48:12;;;;;;;16.23;13.85;;;22.60;73.10;;;;;;10915638;32;20024;-74
2023/03/23 15:54:16;;;;;;;20.87;15.87;;;22.90;72.40;;;;;;10610715;27;7185152;-73
2023/03/23 16:00:20;;;;;;;25.62;16.58;;;22.90;72.30;;;;;;10810812;33;20027;-73
2023/03/23 16:06:26;;;;;;;13.45;11.88;;;23.20;72.50;;;;;;10800873;32;20315;-73
2023/03/23 16:12:28;;;;;;;12.37;8.93;;;23.50;71.50;;;;;;10787545;33;20050;-75
2023/03/23 16:18:30;;;;;;;22.73;20.10;;;24.10;70.70;;;;;;10788090;33;20428;-75
2023/03/23 16:24:32;;;;;;;23.25;16.48;;;24.40;71.70;;;;;;10786122;33;20029;-74
2023/03/23 16:30:35;;;;;;;21.60;19.17;;;24.20;71.90;;;;;;10784184;33;20299;-74
2023/03/23 16:36:37;;;;;;;18.45;13.30;;;24.40;71.40;;;;;;10786932;33;20047;-73
2023/03/23 16:42:39;;;;;;;19.27;14.70;;;24.10;72.30;;;;;;10787708;33;20020;-74
2023/03/23 16:48:42;;;;;;;19.20;16.73;;;23.30;73.10;;;;;;10787415;33;20017;-73
2023/03/23 16:54:44;;;;;;;18.95;14.10;;;22.50;73.20;;;;;;10789378;33;20447;-73
2023/03/23 17:00:49;;;;;;;22.15;16.92;;;21.90;74.20;;;;;;10791104;33;20459;-73
2023/03/23 17:06:51;;;;;;;15.40;13.10;;;21.40;74.30;;;;;;10793966;33;20024;-73
2023/03/23 17:12:54;;;;;;;19.67;13.38;;;21.10;74.40;;;;;;10791449;33;20094;-73
2023/03/23 17:18:56;;;;;;;21.40;15.98;;;20.60;74.70;;;;;;10792355;33;20420;-73
2023/03/23 17:24:59;;;;;;;12.65;11.10;;;20.20;74.60;;;;;;10792176;33;20101;-73
2023/03/23 17:31:01;;;;;;;14.27;12.00;;;19.90;75.40;;;;;;10791872;33;20039;-73
2023/03/23 17:37:03;;;;;;;12.02;9.43;;;19.90;75.70;;;;;;10792263;33;20390;-73
2023/03/23 17:43:05;;;;;;;14.98;13.02;;;19.80;76.00;;;;;;10791521;33;20330;-73
2023/03/23 17:49:08;;;;;;;15.70;11.85;;;19.60;76.20;;;;;;10777468;33;20036;-73
2023/03/23 17:55:10;;;;;;;15.57;12.48;;;19.40;76.70;;;;;;10791529;33;20024;-74
2023/03/23 18:01:13;;;;;;;17.02;14.27;;;19.40;76.80;;;;;;10791590;33;20431;-74
2023/03/23 18:07:15;;;;;;;17.70;13.90;;;19.30;77.00;;;;;;10790525;33;20016;-74
2023/03/23 18:13:17;;;;;;;19.33;14.85;;;19.30;77.40;;;;;;10790290;33;20055;-74
2023/03/23 18:19:19;;;;;;;17.33;15.00;;;19.30;77.40;;;;;;10791414;33;20017;-74
2023/03/23 18:25:22;;;;;;;18.90;16.70;;;19.30;77.20;;;;;;10777961;33;20020;-74
2023/03/23 18:31:24;;;;;;;21.12;17.98;;;19.20;77.00;;;;;;10790767;33;20066;-74
2023/03/23 18:37:26;;;;;;;15.65;14.00;;;19.00;77.40;;;;;;10789626;33;20021;-74
2023/03/23 18:43:29;;;;;;;18.55;14.70;;;18.80;77.90;;;;;;10790536;33;20004;-74
2023/03/23 18:49:32;;;;;;;23.05;19.75;;;18.80;78.00;;;;;;10789783;33;20032;-74
2023/03/23 18:55:35;;;;;;;16.58;14.63;;;18.80;78.20;;;;;;10790122;33;20420;-74
2023/03/23 19:01:37;;;;;;;18.02;14.90;;;18.80;79.10;;;;;;10772672;32;20028;-74
2023/03/23 19:07:39;;;;;;;18.45;16.48;;;19.00;79.90;;;;;;10790402;33;20042;-74
2023/03/23 19:13:41;;;;;;;21.42;18.62;;;19.20;79.80;;;;;;10777080;33;20296;-74
2023/03/23 19:19:44;;;;;;;20.02;16.25;;;19.00;79.60;;;;;;10770674;33;20389;-74
2023/03/23 19:25:46;;;;;;;20.85;17.90;;;19.00;79.70;;;;;;10775202;33;20028;-74
2023/03/23 19:31:49;;;;;;;20.75;17.05;;;19.00;79.30;;;;;;10774493;33;20032;-74
2023/03/23 19:37:51;;;;;;;19.45;16.55;;;18.90;79.20;;;;;;10775066;32;20055;-74
2023/03/23 19:43:53;;;;;;;21.45;18.85;;;18.80;79.00;;;;;;10774508;33;20028;-74
2023/03/23 19:49:58;;;;;;;27.95;21.10;;;18.80;78.90;;;;;;10784652;33;20024;-74
2023/03/23 19:56:00;;;;;;;15.45;12.82;;;18.80;79.60;;;;;;10787911;33;20326;-73
2023/03/23 20:02:03;;;;;;;20.62;18.25;;;18.80;79.50;;;;;;10787766;33;20291;-73
2023/03/23 20:08:05;;;;;;;21.55;18.27;;;18.60;79.50;;;;;;10775366;33;20009;-73
2023/03/23 20:14:07;;;;;;;20.83;17.75;;;18.40;79.30;;;;;;10788374;33;20416;-73
2023/03/23 20:20:10;;;;;;;25.95;22.13;;;18.40;79.20;;;;;;10788218;33;20016;-73
2023/03/23 20:26:14;;;;;;;19.67;17.15;;;18.50;79.00;;;;;;10772593;33;20020;-74
2023/03/23 20:32:16;;;;;;;20.95;18.58;;;18.50;79.80;;;;;;10763435;33;20055;-74
2023/03/23 20:38:18;;;;;;;20.40;18.08;;;18.40;81.00;;;;;;10791436;33;20042;-74
2023/03/23 20:44:23;;;;;;;17.60;15.75;;;18.40;80.50;;;;;;10794124;33;20021;-74
2023/03/23 20:50:26;;;;;;;24.17;21.70;;;18.30;81.10;;;;;;10793093;33;20346;-75
2023/03/23 20:56:28;;;;;;;18.67;16.67;;;18.40;81.90;;;;;;10780235;32;20051;-74
2023/03/23 21:02:32;;;;;;;19.55;16.62;;;18.30;82.50;;;;;;10792975;33;20047;-74
2023/03/23 21:08:36;;;;;;;23.00;20.55;;;18.30;82.70;;;;;;10792765;33;20008;-74
2023/03/23 21:14:40;;;;;;;28.17;24.50;;;18.20;82.10;;;;;;10780724;33;20017;-74
2023/03/23 21:20:42;;;;;;;26.48;22.55;;;18.20;81.80;;;;;;10792799;33;20093;-74
2023/03/23 21:26:44;;;;;;;25.85;22.40;;;18.10;81.30;;;;;;10792481;33;20060;-74
2023/03/23 21:32:47;;;;;;;32.42;27.37;;;18.10;81.40;;;;;;10792071;33;20378;-74
2023/03/23 21:38:49;;;;;;;28.85;23.23;;;18.10;81.70;;;;;;10779112;33;20025;-74
2023/03/23 21:44:52;;;;;;;31.58;26.45;;;18.10;81.40;;;;;;10779953;33;20043;-74
2023/03/23 21:50:55;;;;;;;28.62;25.45;;;18.10;81.50;;;;;;10791319;33;20052;-74
2023/03/23 21:56:57;;;;;;;25.25;20.23;;;18.00;80.90;;;;;;10792511;33;20024;-74
2023/03/23 22:02:59;;;;;;;31.52;24.40;;;17.70;80.80;;;;;;10778356;32;20028;-74
2023/03/23 22:09:04;;;;;;;33.53;27.02;;;17.70;80.80;;;;;;10792300;33;20031;-74
2023/03/23 22:15:08;;;;;;;28.85;25.23;;;17.80;80.40;;;;;;10791503;33;20016;-74
2023/03/23 22:21:11;;;;;;;31.90;28.20;;;17.80;80.60;;;;;;10791930;33;20037;-74
2023/03/23 22:27:14;;;;;;;31.87;25.10;;;17.70;80.50;;;;;;10790423;33;20056;-74
2023/03/23 22:33:16;;;;;;;27.62;22.83;;;17.50;80.30;;;;;;10790906;33;20025;-74
2023/03/23 22:39:18;;;;;;;26.40;21.27;;;17.30;80.30;;;;;;10790313;33;20024;-74
2023/03/23 22:45:22;;;;;;;30.23;22.95;;;17.30;80.30;;;;;;10763867;33;20406;-74
2023/03/23 22:51:24;;;;;;;33.10;23.67;;;17.20;80.10;;;;;;10788521;33;20078;-74
2023/03/23 22:57:26;;;;;;;24.33;21.70;;;17.10;80.20;;;;;;10786358;33;20031;-74
2023/03/23 23:03:29;;;;;;;18.75;16.75;;;17.00;80.20;;;;;;10789551;33;20043;-74
2023/03/23 23:09:32;;;;;;;30.02;26.77;;;17.00;80.00;;;;;;10789516;33;20016;-74
2023/03/23 23:15:34;;;;;;;34.17;28.42;;;17.10;80.00;;;;;;10788226;33;20055;-74
2023/03/23 23:21:36;;;;;;;24.27;20.60;;;17.10;79.90;;;;;;10790275;33;20031;-74
2023/03/23 23:27:39;;;;;;;21.77;19.35;;;17.00;79.70;;;;;;10789511;33;20016;-74
2023/03/23 23:33:41;;;;;;;20.60;17.60;;;16.90;79.70;;;;;;10789231;33;20020;-73
2023/03/23 23:39:44;;;;;;;17.50;15.65;;;16.80;79.50;;;;;;10788570;33;20020;-73
2023/03/23 23:45:46;;;;;;;28.33;24.75;;;16.80;79.40;;;;;;10788977;33;20039;-74
2023/03/23 23:51:48;;;;;;;22.37;20.00;;;16.70;79.50;;;;;;10820035;27;20046;-73
2023/03/23 23:57:51;;;;;;;25.65;22.90;;;16.70;80.40;;;;;;10849389;32;20042;-73
